Time;durP1;ratioP1;P1;durP2;ratioP2;P2;SDS_P1;SDS_P2;PMS_P1;PMS_P2;Temp;Humidity;BMP_temperature;BMP_pressure;BME280_temperature;BME280_humidity;BME280_pressure;Samples;Min_cycle;Max_cycle;Signal;HPM_P1;HPM_P2
2024/01/28 00:01:15;;;;;;;9.37;5.40;;;;;;;2.38;nan;101159.63;4949297;28;20197;-76
2024/01/28 00:03:58;;;;;;;6.68;5.95;;;;;;;2.39;nan;101158.75;4944408;28;20432;-75
2024/01/28 00:06:46;;;;;;;10.98;4.88;;;;;;;2.39;nan;101153.56;4945120;28;20205;-75
2024/01/28 00:10:01;;;;;;;8.50;5.70;;;;;;;2.37;nan;101152.72;4943831;28;20213;-75
2024/01/28 00:12:46;;;;;;;6.32;5.70;;;;;;;2.34;nan;101150.13;4945823;28;20220;-77
2024/01/28 00:18:58;;;;;;;7.07;6.00;;;;;;;2.27;nan;101144.13;4950096;28;20212;-76
2024/01/28 00:22:07;;;;;;;8.13;5.25;;;;;;;2.24;nan;101133.75;4948365;28;20256;-78
2024/01/28 00:24:57;;;;;;;6.60;5.13;;;;;;;2.23;nan;101121.66;4949718;28;20201;-76
2024/01/28 00:27:59;;;;;;;4.80;4.30;;;;;;;2.23;nan;101121.66;4950583;28;20849;-76
2024/01/28 00:30:32;;;;;;;7.65;5.60;;;;;;;2.21;nan;101113.91;4952632;28;20209;-77
2024/01/28 00:32:58;;;;;;;10.80;4.68;;;;;;;2.21;nan;101110.44;4951584;28;20578;-78
2024/01/28 00:35:23;;;;;;;7.10;3.78;;;;;;;2.20;nan;101109.59;4951358;28;20260;-77
2024/01/28 00:37:48;;;;;;;6.63;4.67;;;;;;;2.21;nan;101113.91;4951678;28;20459;-79
2024/01/28 00:40:14;;;;;;;7.57;5.27;;;;;;;2.21;nan;101113.03;4950139;28;20217;-77
2024/01/28 00:42:39;;;;;;;5.47;4.27;;;;;;;2.20;nan;101106.13;4952732;28;20204;-77
2024/01/28 00:45:05;;;;;;;4.87;3.67;;;;;;;2.20;nan;101103.53;4949783;28;20193;-79
2024/01/28 00:47:31;;;;;;;6.23;4.03;;;;;;;2.18;nan;101097.50;4951902;28;20284;-79
2024/01/28 00:49:57;;;;;;;7.03;4.73;;;;;;;2.17;nan;101093.19;4948583;28;20598;-76
2024/01/28 00:52:22;;;;;;;6.43;4.10;;;;;;;2.13;nan;101099.25;4946811;28;20908;-78
2024/01/28 00:54:48;;;;;;;6.30;4.70;;;;;;;2.07;nan;101100.16;4944738;28;20690;-77
2024/01/28 00:57:25;;;;;;;7.93;4.37;;;;;;;2.02;nan;101098.44;4928159;28;20205;-75
2024/01/28 01:00:19;;;;;;;9.25;4.75;;;;;;;1.93;nan;101102.81;4938848;28;20260;-75
2024/01/28 01:03:02;;;;;;;5.38;4.30;;;;;;;1.89;nan;101108.00;4936592;28;20220;-77
2024/01/28 01:05:54;;;;;;;5.22;4.68;;;;;;;1.85;nan;101104.56;4948216;28;20806;-75
2024/01/28 01:09:12;;;;;;;7.40;6.00;;;;;;;1.84;nan;101097.66;4948857;28;21020;-76
2024/01/28 01:14:37;;;;;;;6.18;4.22;;;;;;;1.74;nan;101098.56;4948654;28;20216;-78
2024/01/28 01:21:32;;;;;;;8.10;5.40;;;;;;;1.67;nan;101109.81;4951661;28;20187;-76
2024/01/28 01:24:41;;;;;;;5.45;4.20;;;;;;;1.51;nan;101112.44;4908010;29;20206;-79
2024/01/28 01:27:07;;;;;;;4.95;4.15;;;;;;;1.43;nan;101115.91;4976061;23;20755;-86
2024/01/28 01:29:42;;;;;;;4.73;3.70;;;;;;;1.36;nan;101112.47;4957366;28;20220;-86
2024/01/28 01:36:15;;;;;;;6.07;4.30;;;;;;;1.24;nan;101115.06;4965646;28;20213;-85
2024/01/28 01:39:39;;;;;;;9.40;6.47;;;;;;;1.26;nan;101116.78;4947019;29;20435;-86
2024/01/28 01:43:03;;;;;;;10.73;4.80;;;;;;;1.32;nan;101110.75;4949003;29;20335;-85
2024/01/28 01:45:28;;;;;;;12.50;4.88;;;;;;;1.34;nan;101106.44;4945948;28;20199;-86
2024/01/28 01:47:54;;;;;;;6.97;4.43;;;;;;;1.33;nan;101107.31;4948160;28;20582;-85
2024/01/28 01:53:33;;;;;;;6.35;4.55;;;;;;;1.32;nan;101108.16;4947921;29;20258;-86
2024/01/28 01:56:27;;;;;;;9.30;5.68;;;;;;;1.33;nan;101105.56;4946942;28;20219;-86
2024/01/28 01:58:53;;;;;;;7.80;4.93;;;;;;;1.36;nan;101104.72;4948056;28;20213;-85
2024/01/28 02:01:19;;;;;;;6.43;4.65;;;;;;;1.38;nan;101105.56;4946307;29;20253;-86
2024/01/28 02:04:07;;;;;;;5.25;3.95;;;;;;;1.41;nan;101096.94;4949156;29;20232;-85
2024/01/28 02:07:19;;;;;;;6.72;4.95;;;;;;;1.43;nan;101101.25;4949904;28;20883;-86
2024/01/28 02:10:15;;;;;;;4.45;3.80;;;;;;;1.44;nan;101110.72;4948040;29;20221;-85
2024/01/28 02:13:01;;;;;;;5.53;4.28;;;;;;;1.39;nan;101098.66;4949195;29;20261;-86
2024/01/28 02:15:40;;;;;;;6.85;4.40;;;;;;;1.29;nan;101096.06;4943603;28;20217;-85
2024/01/28 02:18:05;;;;;;;5.93;4.45;;;;;;;1.21;nan;101099.53;4946650;28;20211;-85
2024/01/28 02:20:31;;;;;;;5.90;4.80;;;;;;;1.10;nan;101099.56;4948805;29;20217;-85
2024/01/28 02:22:57;;;;;;;4.60;4.20;;;;;;;1.04;nan;101103.00;4946178;28;20464;-87
2024/01/28 02:25:29;;;;;;;7.93;4.40;;;;;;;1.02;nan;101096.97;4962485;28;20201;-86
2024/01/28 02:28:44;;;;;;;10.98;5.13;;;;;;;1.02;nan;101099.56;4945738;29;20237;-86
2024/01/28 02:31:19;;;;;;;5.53;4.97;;;;;;;1.01;nan;101094.41;4947718;29;20290;-85
2024/01/28 02:33:44;;;;;;;5.30;4.47;;;;;;;0.97;nan;101095.25;4945810;29;20215;-85
2024/01/28 02:36:10;;;;;;;8.97;5.40;;;;;;;0.98;nan;101090.09;4947438;28;21078;-86
2024/01/28 02:38:35;;;;;;;7.20;5.70;;;;;;;1.00;nan;101093.53;4946809;28;20447;-87
2024/01/28 02:41:01;;;;;;;6.10;5.00;;;;;;;1.02;nan;101094.38;4949415;28;20295;-87
2024/01/28 02:43:26;;;;;;;3.70;3.20;;;;;;;1.04;nan;101084.91;4948586;28;20198;-85
2024/01/28 02:45:52;;;;;;;7.13;4.77;;;;;;;1.04;nan;101090.06;4946547;28;20810;-86
2024/01/28 02:48:17;;;;;;;6.60;5.73;;;;;;;1.06;nan;101084.91;4947579;28;20212;-86
2024/01/28 02:51:27;;;;;;;6.93;4.25;;;;;;;1.06;nan;101079.75;4950843;29;20583;-86
2024/01/28 02:54:18;;;;;;;6.78;3.80;;;;;;;1.03;nan;101079.75;4949524;29;20210;-85
2024/01/28 02:57:17;;;;;;;5.30;3.93;;;;;;;0.99;nan;101076.28;4951625;28;20207;-85
2024/01/28 02:59:42;;;;;;;5.50;4.90;;;;;;;0.98;nan;101076.28;4950146;29;20447;-86
2024/01/28 03:02:08;;;;;;;6.77;5.33;;;;;;;0.98;nan;101079.75;4949736;28;20216;-83
2024/01/28 03:04:56;;;;;;;8.10;4.50;;;;;;;0.99;nan;101084.03;4946973;29;20591;-83
2024/01/28 03:07:40;;;;;;;5.95;4.32;;;;;;;0.99;nan;101089.22;4948307;28;20467;-84
2024/01/28 03:10:06;;;;;;;7.80;4.00;;;;;;;0.98;nan;101082.31;4951237;28;20218;-84
2024/01/28 03:12:31;;;;;;;5.45;4.22;;;;;;;0.96;nan;101080.59;4949144;28;20224;-84
2024/01/28 03:15:12;;;;;;;6.70;3.80;;;;;;;0.93;nan;101081.47;4947386;28;20201;-83
2024/01/28 03:18:25;;;;;;;4.40;3.58;;;;;;;0.94;nan;101075.41;4947495;28;20247;-84
2024/01/28 03:24:22;;;;;;;6.35;4.80;;;;;;;0.89;nan;101077.13;4947781;29;20232;-84
2024/01/28 03:26:52;;;;;;;10.40;6.70;;;;;;;0.88;nan;101072.84;4945827;28;20660;-87
2024/01/28 03:32:56;;;;;;;4.93;4.20;;;;;;;0.82;nan;101073.72;4893520;29;20282;-84
2024/01/28 03:35:21;;;;;;;5.30;4.32;;;;;;;0.80;nan;101061.63;4901852;29;20199;-86
2024/01/28 03:37:47;;;;;;;6.63;5.47;;;;;;;0.78;nan;101058.19;4894947;29;20205;-84
2024/01/28 03:40:34;;;;;;;9.40;6.30;;;;;;;0.75;nan;101060.78;4878680;29;20538;-85
2024/01/28 03:43:02;;;;;;;9.50;5.63;;;;;;;0.73;nan;101059.91;4903130;29;20460;-85
2024/01/28 03:46:03;;;;;;;11.90;7.23;;;;;;;0.72;nan;101063.38;4952167;28;20240;-85
2024/01/28 03:48:37;;;;;;;6.68;5.95;;;;;;;0.69;nan;101063.38;4939449;28;20316;-84
2024/01/28 03:51:03;;;;;;;7.40;5.33;;;;;;;0.68;nan;101066.81;4953845;28;20217;-85
2024/01/28 03:57:06;;;;;;;7.75;4.18;;;;;;;0.64;nan;101073.69;4953958;28;20228;-85
2024/01/28 03:59:31;;;;;;;7.72;5.57;;;;;;;0.60;nan;101072.84;4943191;28;20198;-85
2024/01/28 04:01:56;;;;;;;5.47;3.97;;;;;;;0.55;nan;101071.97;4948705;28;20188;-85
2024/01/28 04:04:22;;;;;;;7.50;4.60;;;;;;;0.49;nan;101071.09;4952113;29;20705;-86
2024/01/28 04:06:47;;;;;;;6.13;5.03;;;;;;;0.46;nan;101065.91;4953635;28;20277;-85
2024/01/28 04:09:54;;;;;;;10.43;6.53;;;;;;;0.49;nan;101066.81;4949106;28;20459;-85
2024/01/28 04:16:50;;;;;;;8.18;5.45;;;;;;;0.55;nan;101058.19;4932430;29;20265;-85
2024/01/28 04:19:41;;;;;;;5.35;4.13;;;;;;;0.56;nan;101057.31;4946574;29;20244;-85
2024/01/28 04:22:35;;;;;;;4.72;3.75;;;;;;;0.55;nan;101053.03;4945225;29;20189;-85
2024/01/28 04:25:00;;;;;;;7.50;4.30;;;;;;;0.53;nan;101057.31;4950539;29;20208;-86
2024/01/28 04:27:29;;;;;;;5.20;4.70;;;;;;;0.55;nan;101056.47;4946035;28;20225;-87
2024/01/28 04:29:55;;;;;;;6.50;4.50;;;;;;;0.55;nan;101053.88;4946963;29;20198;-86
2024/01/28 04:32:39;;;;;;;7.63;6.40;;;;;;;0.53;nan;101050.41;4943354;29;20240;-88
2024/01/28 04:35:44;;;;;;;8.07;4.05;;;;;;;0.49;nan;101047.81;4954002;29;20205;-86
2024/01/28 04:45:03;;;;;;;8.55;5.00;;;;;;;0.33;nan;101045.25;4940969;29;20682;-86
2024/01/28 04:47:29;;;;;;;3.43;3.13;;;;;;;0.37;nan;101051.25;4943643;28;20240;-85
2024/01/28 04:50:36;;;;;;;7.63;4.27;;;;;;;0.38;nan;101047.84;4955193;28;20445;-85
2024/01/28 04:53:21;;;;;;;5.40;4.38;;;;;;;0.39;nan;101050.41;4953994;29;20428;-86
2024/01/28 04:59:36;;;;;;;5.32;3.92;;;;;;;0.41;nan;101048.69;4954236;29;20254;-85
2024/01/28 05:02:01;;;;;;;5.35;4.20;;;;;;;0.41;nan;101045.25;4953746;28;20213;-86
2024/01/28 05:04:52;;;;;;;4.95;4.55;;;;;;;0.40;nan;101049.53;4946636;29;20292;-85
2024/01/28 05:07:18;;;;;;;4.93;3.80;;;;;;;0.40;nan;101035.75;4950654;28;20459;-85
2024/01/28 05:13:31;;;;;;;5.22;4.35;;;;;;;0.37;nan;101043.50;4951014;29;20211;-85
2024/01/28 05:26:07;;;;;;;4.88;3.45;;;;;;;0.40;nan;101046.94;4952337;29;20751;-86
2024/01/28 05:32:29;;;;;;;5.25;3.38;;;;;;;0.34;nan;101038.34;4951342;29;20196;-86
2024/01/28 05:35:30;;;;;;;5.03;4.45;;;;;;;0.33;nan;101034.91;4949089;29;20193;-85
2024/01/28 05:38:13;;;;;;;5.18;3.83;;;;;;;0.31;nan;101035.75;4954464;28;20447;-88
2024/01/28 05:44:14;;;;;;;5.05;3.75;;;;;;;0.27;nan;101034.91;4955030;28;20200;-86
2024/01/28 05:47:16;;;;;;;7.70;3.70;;;;;;;0.30;nan;101039.19;4953612;28;20217;-85
2024/01/28 05:50:14;;;;;;;4.80;3.72;;;;;;;0.30;nan;101045.25;4952568;28;20201;-86
2024/01/28 05:52:40;;;;;;;4.18;3.33;;;;;;;0.29;nan;101045.22;4952099;28;20220;-86
2024/01/28 05:55:05;;;;;;;4.57;4.03;;;;;;;0.27;nan;101039.19;4963605;28;20189;-85
2024/01/28 05:57:31;;;;;;;3.40;3.10;;;;;;;0.22;nan;101036.63;4948916;28;20209;-86
2024/01/28 05:59:56;;;;;;;8.10;3.50;;;;;;;0.19;nan;101036.63;4945267;29;20193;-86
2024/01/28 06:02:21;;;;;;;4.67;3.77;;;;;;;0.13;nan;101032.28;4946231;29;20503;-86
2024/01/28 06:04:47;;;;;;;6.10;3.23;;;;;;;0.07;nan;101040.00;4941267;29;20219;-86
2024/01/28 06:07:13;;;;;;;3.67;3.33;;;;;;;-0.01;nan;101039.13;4943791;28;20248;-85
2024/01/28 06:10:00;;;;;;;3.13;2.83;;;;;;;-0.07;nan;101031.38;4946268;28;20228;-85
2024/01/28 06:13:21;;;;;;;3.95;3.15;;;;;;;-0.12;nan;101026.19;4944965;28;20205;-85
2024/01/28 06:16:33;;;;;;;6.22;2.75;;;;;;;-0.17;nan;101029.63;4953142;28;20197;-85
2024/01/28 06:19:24;;;;;;;5.40;3.10;;;;;;;-0.17;nan;101029.63;4942565;29;20207;-86
2024/01/28 06:22:28;;;;;;;7.43;3.85;;;;;;;-0.25;nan;101038.19;4918982;29;20234;-85
2024/01/28 06:28:47;;;;;;;4.32;3.92;;;;;;;-0.35;nan;101033.00;4913052;29;20266;-85
2024/01/28 06:32:36;;;;;;;6.78;3.60;;;;;;;-0.30;nan;101036.47;4918901;29;20267;-85
2024/01/28 06:35:10;;;;;;;4.78;3.75;;;;;;;-0.26;nan;101028.72;4881725;29;20477;-85
2024/01/28 06:38:17;;;;;;;5.28;3.85;;;;;;;-0.23;nan;101026.16;4882872;29;20433;-84
2024/01/28 06:41:20;;;;;;;3.97;3.50;;;;;;;-0.21;nan;101025.31;4883309;29;20206;-85
2024/01/28 06:47:31;;;;;;;4.40;3.92;;;;;;;-0.22;nan;101019.28;4918096;28;20239;-84
2024/01/28 06:50:52;;;;;;;6.70;3.10;;;;;;;-0.19;nan;101023.59;4943882;29;20185;-84
2024/01/28 06:53:42;;;;;;;5.50;3.28;;;;;;;-0.17;nan;101024.47;4894854;29;20219;-84
2024/01/28 06:56:07;;;;;;;6.20;3.42;;;;;;;-0.13;nan;101028.78;4942399;28;20233;-84
2024/01/28 06:58:33;;;;;;;4.70;4.10;;;;;;;-0.14;nan;101027.91;4941744;29;20651;-83
2024/01/28 07:00:58;;;;;;;8.27;4.33;;;;;;;-0.17;nan;101025.31;4945042;28;20205;-83
2024/01/28 07:03:24;;;;;;;8.17;4.70;;;;;;;-0.17;nan;101027.03;4942979;28;20431;-84
2024/01/28 07:05:49;;;;;;;8.32;6.38;;;;;;;-0.17;nan;101033.06;4942483;28;20522;-84
2024/01/28 07:08:14;;;;;;;6.33;4.53;;;;;;;-0.17;nan;101039.94;4940434;28;20483;-83
2024/01/28 07:10:40;;;;;;;5.87;3.93;;;;;;;-0.20;nan;101032.19;4943196;28;20598;-84
2024/01/28 07:13:05;;;;;;;7.43;3.57;;;;;;;-0.20;nan;101037.38;4940969;28;20197;-83
2024/01/28 07:15:31;;;;;;;4.87;4.40;;;;;;;-0.19;nan;101028.75;4957447;28;20203;-83
2024/01/28 07:17:56;;;;;;;4.90;3.57;;;;;;;-0.17;nan;101027.91;4940609;28;20219;-83
2024/01/28 07:20:22;;;;;;;4.00;3.00;;;;;;;-0.15;nan;101046.00;4940813;29;20678;-83
2024/01/28 07:22:47;;;;;;;4.53;3.80;;;;;;;-0.15;nan;101040.81;4939467;28;20697;-83
2024/01/28 07:25:13;;;;;;;5.30;3.27;;;;;;;-0.14;nan;101043.41;4942334;28;20640;-83
2024/01/28 07:27:39;;;;;;;4.07;3.40;;;;;;;-0.09;nan;101046.00;4941102;28;20598;-83
2024/01/28 07:30:06;;;;;;;3.97;3.53;;;;;;;-0.08;nan;101045.13;4939008;29;20205;-83
2024/01/28 07:32:32;;;;;;;5.57;3.50;;;;;;;-0.06;nan;101049.44;4940590;28;20460;-83
2024/01/28 07:34:57;;;;;;;6.10;3.37;;;;;;;-0.03;nan;101043.44;4936746;28;20208;-83
2024/01/28 07:37:23;;;;;;;3.60;3.00;;;;;;;0.01;nan;101047.75;4937713;28;20209;-83
2024/01/28 07:39:48;;;;;;;4.03;3.57;;;;;;;0.04;nan;101059.81;4939063;28;20204;-83
2024/01/28 07:42:14;;;;;;;6.50;4.40;;;;;;;0.06;nan;101051.22;4938402;28;20227;-83
2024/01/28 07:44:39;;;;;;;5.13;4.57;;;;;;;0.10;nan;101058.09;4941857;29;20201;-83
2024/01/28 07:47:05;;;;;;;5.87;4.13;;;;;;;0.15;nan;101058.97;4935640;28;20267;-83
2024/01/28 07:49:30;;;;;;;6.43;4.20;;;;;;;0.18;nan;101065.88;4940406;29;20197;-83
2024/01/28 07:51:56;;;;;;;8.30;5.10;;;;;;;0.21;nan;101063.28;4939507;28;20213;-83
2024/01/28 07:54:21;;;;;;;6.13;4.70;;;;;;;0.26;nan;101068.47;4938728;28;20751;-83
2024/01/28 07:56:47;;;;;;;5.70;5.10;;;;;;;0.28;nan;101061.59;4937236;28;20236;-82
2024/01/28 07:59:12;;;;;;;7.53;4.73;;;;;;;0.26;nan;101052.97;4938041;29;21025;-83
2024/01/28 08:01:38;;;;;;;7.50;5.47;;;;;;;0.26;nan;101064.16;4939037;29;20251;-83
2024/01/28 08:04:04;;;;;;;4.67;4.27;;;;;;;0.27;nan;101060.75;4936317;28;20287;-83
2024/01/28 08:06:30;;;;;;;8.27;5.50;;;;;;;0.29;nan;101063.31;4935960;28;20217;-83
2024/01/28 08:08:55;;;;;;;10.20;6.93;;;;;;;0.31;nan;101056.44;4936545;28;20517;-82
2024/01/28 08:11:21;;;;;;;8.87;6.10;;;;;;;0.35;nan;101064.22;4939589;29;20201;-82
2024/01/28 08:13:48;;;;;;;7.63;5.80;;;;;;;0.40;nan;101061.59;4938722;28;20232;-82
2024/01/28 08:16:14;;;;;;;9.95;6.05;;;;;;;0.45;nan;101059.91;4940619;28;20213;-83
2024/01/28 08:18:39;;;;;;;9.88;8.55;;;;;;;0.50;nan;101063.34;4939299;28;20201;-82
2024/01/28 08:21:05;;;;;;;17.37;12.23;;;;;;;0.52;nan;101060.78;4939160;28;20213;-82
2024/01/28 08:23:30;;;;;;;10.30;8.00;;;;;;;0.53;nan;101067.66;4938063;28;20211;-83
2024/01/28 08:25:56;;;;;;;8.43;7.60;;;;;;;0.53;nan;101057.31;4941592;28;20217;-83
2024/01/28 08:28:24;;;;;;;7.60;6.23;;;;;;;0.59;nan;101062.50;4943156;28;20233;-82
2024/01/28 08:30:50;;;;;;;8.07;5.68;;;;;;;0.67;nan;101060.75;4937058;29;20209;-83
2024/01/28 08:33:16;;;;;;;10.33;5.77;;;;;;;0.75;nan;101058.19;4937298;28;20207;-83
2024/01/28 08:35:43;;;;;;;8.37;5.23;;;;;;;0.78;nan;101058.19;4937967;28;20464;-82
2024/01/28 08:38:09;;;;;;;6.95;5.40;;;;;;;0.84;nan;101068.53;4937520;28;20451;-83
2024/01/28 08:40:34;;;;;;;8.63;5.87;;;;;;;0.93;nan;101068.53;4938014;28;20201;-82
2024/01/28 08:43:00;;;;;;;7.60;6.00;;;;;;;1.02;nan;101063.34;4938913;28;20460;-83
2024/01/28 08:45:26;;;;;;;6.38;4.50;;;;;;;1.10;nan;101061.59;4937692;29;20709;-83
2024/01/28 08:47:51;;;;;;;5.77;3.77;;;;;;;1.21;nan;101058.13;4936491;28;20673;-83
2024/01/28 08:50:40;;;;;;;4.63;4.20;;;;;;;1.32;nan;101052.09;4935331;28;20244;-83
2024/01/28 08:53:06;;;;;;;6.40;4.05;;;;;;;1.45;nan;101063.25;4934991;28;20213;-83
2024/01/28 08:56:02;;;;;;;5.63;4.70;;;;;;;1.62;nan;101064.91;4937909;28;20248;-83
2024/01/28 08:58:53;;;;;;;5.00;3.35;;;;;;;1.75;nan;101061.41;4938508;29;20194;-83
2024/01/28 09:01:49;;;;;;;4.40;3.22;;;;;;;1.95;nan;101049.25;4940012;29;20199;-82
2024/01/28 09:04:59;;;;;;;4.22;3.63;;;;;;;2.24;nan;101050.78;4938577;29;20208;-82
2024/01/28 09:08:10;;;;;;;7.82;4.40;;;;;;;3.19;nan;101041.38;4940859;28;20436;-82
2024/01/28 09:11:17;;;;;;;3.97;2.97;;;;;;;5.25;nan;101034.06;4942368;29;20215;-82
2024/01/28 09:16:50;;;;;;;4.07;3.60;;;;;;;8.44;nan;101020.78;4935871;28;20755;-82
2024/01/28 09:19:15;;;;;;;4.57;3.17;;;;;;;9.41;nan;101018.31;4951126;28;20193;-83
2024/01/28 09:21:52;;;;;;;4.70;3.60;;;;;;;10.22;nan;101009.13;4947705;29;20591;-83
2024/01/28 09:24:18;;;;;;;4.57;3.30;;;;;;;11.06;nan;101002.19;4948951;29;20353;-83
2024/01/28 09:26:43;;;;;;;4.23;3.83;;;;;;;11.75;nan;101001.75;4935292;28;20419;-83
2024/01/28 09:29:09;;;;;;;2.93;2.73;;;;;;;12.33;nan;101008.69;4934516;28;20343;-83
2024/01/28 09:31:34;;;;;;;3.90;3.13;;;;;;;12.74;nan;101003.16;4935655;28;20240;-84
2024/01/28 09:33:59;;;;;;;5.10;3.87;;;;;;;12.95;nan;100996.78;4935678;28;20232;-84
2024/01/28 09:36:25;;;;;;;5.27;3.67;;;;;;;13.22;nan;100986.56;4936764;28;20218;-84
2024/01/28 09:38:50;;;;;;;4.53;3.10;;;;;;;13.56;nan;100994.53;4935664;28;20267;-84
2024/01/28 09:42:07;;;;;;;4.70;2.70;;;;;;;13.90;nan;101004.94;4937074;28;20276;-83
2024/01/28 09:48:36;;;;;;;4.30;3.90;;;;;;;14.11;nan;101002.91;4939303;28;20231;-85
2024/01/28 09:51:02;;;;;;;4.10;3.00;;;;;;;13.70;nan;101006.03;4911629;28;20213;-85
2024/01/28 09:53:27;;;;;;;3.63;2.60;;;;;;;13.22;nan;101004.19;4934324;29;20201;-85
2024/01/28 09:55:53;;;;;;;3.40;3.03;;;;;;;12.72;nan;101012.91;4934492;28;20215;-85
2024/01/28 09:58:28;;;;;;;4.27;3.30;;;;;;;12.07;nan;101009.91;4934978;28;20217;-85
2024/01/28 10:01:03;;;;;;;4.00;2.58;;;;;;;11.76;nan;101005.22;4927757;28;20570;-85
2024/01/28 10:03:31;;;;;;;3.83;2.90;;;;;;;11.72;nan;101005.38;4935073;29;20304;-85
2024/01/28 10:06:33;;;;;;;3.17;2.55;;;;;;;11.84;nan;101003.09;4934975;28;20486;-85
2024/01/28 10:08:59;;;;;;;4.90;3.20;;;;;;;12.09;nan;101006.28;4935988;28;20547;-85
2024/01/28 10:11:24;;;;;;;3.77;2.73;;;;;;;11.76;nan;101002.59;4934154;28;20461;-85
2024/01/28 10:13:56;;;;;;;2.40;2.20;;;;;;;11.59;nan;100998.09;4934625;28;20216;-85
2024/01/28 10:16:37;;;;;;;2.75;2.50;;;;;;;11.22;nan;101003.22;4934122;28;20205;-85
2024/01/28 10:19:24;;;;;;;4.47;3.20;;;;;;;10.94;nan;100994.84;4935652;29;20236;-85
2024/01/28 10:22:31;;;;;;;3.45;2.92;;;;;;;10.63;nan;100998.75;4934676;28;20205;-85
2024/01/28 10:25:55;;;;;;;3.80;2.53;;;;;;;10.28;nan;100995.78;4937713;28;20221;-84
2024/01/28 10:28:21;;;;;;;4.05;3.10;;;;;;;9.88;nan;100999.09;4927854;28;20248;-84
2024/01/28 10:34:05;;;;;;;4.32;2.15;;;;;;;9.00;nan;100999.69;4937135;29;20860;-84
2024/01/28 10:36:48;;;;;;;2.80;2.05;;;;;;;8.83;nan;100994.16;4936199;28;20212;-84
2024/01/28 10:39:24;;;;;;;3.85;2.97;;;;;;;8.77;nan;100996.97;4937128;28;20444;-84
2024/01/28 10:42:49;;;;;;;4.57;3.15;;;;;;;8.63;nan;100990.44;4939122;29;20203;-84
2024/01/28 10:45:41;;;;;;;3.40;2.97;;;;;;;8.44;nan;100984.09;4939056;29;20216;-84
2024/01/28 10:48:47;;;;;;;3.95;2.92;;;;;;;8.27;nan;100978.53;4938731;28;20303;-83
2024/01/28 10:54:59;;;;;;;4.55;2.65;;;;;;;7.92;nan;100977.88;4937482;29;20247;-85
2024/01/28 10:57:51;;;;;;;4.38;2.35;;;;;;;7.79;nan;100976.53;4937254;28;20601;-83
2024/01/28 11:00:58;;;;;;;5.22;3.15;;;;;;;7.58;nan;100967.56;4938642;29;20243;-83
2024/01/28 11:04:07;;;;;;;3.45;2.10;;;;;;;7.46;nan;100964.41;4939639;29;20215;-84
2024/01/28 11:07:08;;;;;;;3.20;2.60;;;;;;;7.42;nan;100961.94;4937361;28;20208;-83
2024/01/28 11:13:05;;;;;;;5.45;3.83;;;;;;;7.39;nan;100955.03;4937281;29;20200;-84
2024/01/28 11:19:05;;;;;;;2.92;2.50;;;;;;;7.45;nan;100946.16;4935941;28;20299;-83
2024/01/28 11:22:07;;;;;;;3.35;2.08;;;;;;;7.46;nan;100940.03;4939370;28;20222;-83
2024/01/28 11:25:04;;;;;;;2.28;2.08;;;;;;;7.50;nan;100933.81;4937553;28;20695;-84
2024/01/28 11:28:08;;;;;;;3.20;1.85;;;;;;;7.54;nan;100932.81;4915683;28;20228;-83
2024/01/28 11:31:07;;;;;;;5.50;2.83;;;;;;;7.59;nan;100933.56;4949784;28;20220;-84
2024/01/28 11:37:27;;;;;;;3.47;2.70;;;;;;;7.72;nan;100934.91;4936763;28;20241;-83
2024/01/28 11:40:11;;;;;;;4.50;3.42;;;;;;;7.74;nan;100932.22;4943417;28;20469;-81
2024/01/28 11:43:18;;;;;;;5.20;2.58;;;;;;;7.74;nan;100929.59;4952210;29;20291;-81
2024/01/28 11:46:27;;;;;;;3.65;3.30;;;;;;;7.73;nan;100917.44;4940437;29;20284;-83
2024/01/28 11:49:41;;;;;;;4.82;2.70;;;;;;;7.72;nan;100908.75;4928627;29;20708;-84
2024/01/28 11:52:50;;;;;;;3.85;3.10;;;;;;;7.79;nan;100908.53;4936939;28;20665;-84
2024/01/28 11:55:41;;;;;;;5.38;3.45;;;;;;;7.88;nan;100901.25;4933140;28;20704;-84
2024/01/28 12:01:58;;;;;;;4.15;2.97;;;;;;;8.03;nan;100892.06;4942309;29;20189;-85
2024/01/28 12:05:11;;;;;;;3.88;3.47;;;;;;;8.07;nan;100893.66;4940432;29;20201;-84
2024/01/28 12:08:07;;;;;;;5.05;3.85;;;;;;;8.14;nan;100889.94;4936340;28;20201;-84
2024/01/28 12:14:43;;;;;;;7.55;4.45;;;;;;;8.23;nan;100887.91;4937086;28;20206;-84
2024/01/28 12:17:51;;;;;;;5.32;3.70;;;;;;;8.24;nan;100879.19;4913117;28;20264;-84
2024/01/28 12:20:36;;;;;;;4.88;4.32;;;;;;;8.33;nan;100878.84;4935788;28;20197;-84
2024/01/28 12:23:18;;;;;;;4.30;3.50;;;;;;;8.42;nan;100870.72;4936360;29;20205;-85
2024/01/28 12:25:58;;;;;;;3.47;3.17;;;;;;;8.52;nan;100863.41;4935157;28;20557;-85
2024/01/28 12:29:04;;;;;;;5.18;4.10;;;;;;;8.59;nan;100860.53;4938547;28;20406;-85
2024/01/28 12:35:24;;;;;;;5.90;3.80;;;;;;;8.75;nan;100850.34;4937362;29;20803;-82
2024/01/28 12:37:53;;;;;;;4.45;3.90;;;;;;;8.83;nan;100843.06;4935994;28;20856;-83
2024/01/28 12:40:21;;;;;;;5.57;3.87;;;;;;;8.88;nan;100842.88;4935567;28;20201;-83
2024/01/28 12:43:27;;;;;;;5.18;4.68;;;;;;;8.93;nan;100835.69;4937850;28;20465;-85
2024/01/28 12:46:10;;;;;;;4.00;3.60;;;;;;;8.95;nan;100841.75;4939890;28;20594;-82
2024/01/28 12:48:42;;;;;;;5.05;3.20;;;;;;;8.98;nan;100832.91;4937190;29;20233;-83
2024/01/28 12:51:55;;;;;;;4.88;3.90;;;;;;;9.02;nan;100827.50;4936496;29;20205;-83
2024/01/28 13:02:50;;;;;;;8.10;3.50;;;;;;;9.17;nan;100826.06;4938462;28;20228;-83
2024/01/28 13:09:58;;;;;;;;;;;;;;;;;;;;;
2024/01/28 13:13:41;;;;;;;3.20;2.63;;;;;;;9.36;nan;100810.47;4927787;29;20204;-82
2024/01/28 13:16:07;;;;;;;5.93;2.83;;;;;;;9.39;nan;100807.72;4939599;28;20197;-84
2024/01/28 13:19:15;;;;;;;4.33;3.40;;;;;;;9.44;nan;100807.56;4936761;29;20840;-83
2024/01/28 13:22:53;;;;;;;3.42;2.30;;;;;;;9.49;nan;100795.97;4939144;28;20978;-84
2024/01/28 13:25:22;;;;;;;3.35;1.80;;;;;;;9.54;nan;100798.41;4926334;29;20201;-84
2024/01/28 13:28:08;;;;;;;2.92;2.30;;;;;;;9.58;nan;100791.25;5169869;22;20375;-80
2024/01/28 13:46:17;;;;;;;2.00;1.88;;;;;;;9.71;nan;100781.97;5021413;28;20270;-79
2024/01/28 13:56:58;;;;;;;5.70;3.17;;;;;;;9.65;nan;100759.47;4977970;28;20199;-80
2024/01/28 14:00:34;;;;;;;4.00;2.78;;;;;;;9.70;nan;100751.41;4971849;28;20200;-78
2024/01/28 14:06:33;;;;;;;3.67;3.22;;;;;;;9.78;nan;100751.09;4977858;28;20210;-78
2024/01/28 14:09:08;;;;;;;4.70;3.70;;;;;;;9.82;nan;100757.91;5010539;28;20766;-78
2024/01/28 14:11:38;;;;;;;6.15;3.70;;;;;;;9.83;nan;100755.22;5015267;28;20209;-78
2024/01/28 14:14:06;;;;;;;3.38;3.05;;;;;;;9.86;nan;100751.63;5016804;28;20242;-78
2024/01/28 14:16:32;;;;;;;4.20;3.07;;;;;;;9.87;nan;100759.41;5015268;28;20677;-78
2024/01/28 14:25:51;;;;;;;5.38;3.58;;;;;;;9.95;nan;100740.72;4994919;28;20597;-78
2024/01/28 14:28:33;;;;;;;4.05;2.83;;;;;;;9.98;nan;100748.47;4997255;28;20269;-79
2024/01/28 14:39:03;;;;;;;4.60;2.70;;;;;;;9.98;nan;100745.84;5016304;28;20237;-78
2024/01/28 14:41:54;;;;;;;3.85;3.33;;;;;;;9.98;nan;100735.34;5010407;28;20252;-79
2024/01/28 14:51:00;;;;;;;3.70;3.40;;;;;;;10.05;nan;100738.56;5018027;28;20934;-79
2024/01/28 14:53:56;;;;;;;4.95;3.10;;;;;;;10.04;nan;100739.47;4991125;28;20947;-79
2024/01/28 14:56:47;;;;;;;4.35;3.95;;;;;;;10.02;nan;100738.69;5032660;22;20915;-77
2024/01/28 14:59:40;;;;;;;6.20;3.50;;;;;;;9.98;nan;100738.81;4960892;28;20215;-78
2024/01/28 15:09:09;;;;;;;4.80;3.50;;;;;;;9.98;nan;100738.81;4959775;28;20468;-77
2024/01/28 15:11:36;;;;;;;6.95;3.90;;;;;;;9.94;nan;100739.88;4957602;28;20924;-76
2024/01/28 15:14:20;;;;;;;4.43;3.63;;;;;;;9.92;nan;100746.13;4955164;28;20206;-77
2024/01/28 15:17:13;;;;;;;3.83;3.45;;;;;;;9.86;nan;100741.13;4951200;28;20731;-77
2024/01/28 15:19:39;;;;;;;6.45;4.07;;;;;;;9.85;nan;100742.88;4958632;28;20198;-76
2024/01/28 15:22:04;;;;;;;8.27;4.13;;;;;;;9.82;nan;100734.28;4956179;28;20901;-78
2024/01/28 15:24:51;;;;;;;5.57;4.70;;;;;;;9.79;nan;100740.53;4957950;28;20637;-78
2024/01/28 15:32:05;;;;;;;30.38;17.73;;;;;;;9.62;nan;100737.75;4961624;28;21044;-77
2024/01/28 15:34:48;;;;;;;5.20;4.25;;;;;;;9.51;nan;100736.44;4927414;28;20268;-77
2024/01/28 15:37:13;;;;;;;4.70;3.75;;;;;;;9.44;nan;100734.97;4955178;28;20252;-77
2024/01/28 15:39:39;;;;;;;6.27;3.73;;;;;;;9.38;nan;100732.59;4959103;28;20225;-77
2024/01/28 15:42:36;;;;;;;4.63;4.23;;;;;;;9.30;nan;100738.16;4958305;28;20212;-78
2024/01/28 15:45:23;;;;;;;8.80;4.05;;;;;;;9.19;nan;100740.34;4951376;28;20217;-76
2024/01/28 15:48:24;;;;;;;4.82;4.35;;;;;;;9.07;nan;100740.81;4961334;28;20220;-77
2024/01/28 15:51:14;;;;;;;3.85;3.55;;;;;;;8.93;nan;100749.22;4960589;28;20223;-77